Virtual Norwegian is not affiliated with Norwegian Air Shuttle in any way.
If you are looking for the real "Norwegian", or you wish to book Norwegian flights, please visit Norwegian.com


We use cookies to ensure you get the best experience on our website.   ACCEPT

KJFK - JFK - New York (John F Kennedy Intl)

General Info Alternate Airport
ICAO: KJFK Elevation: 13 ft ICAO: KSWF
IATA: JFK Country: United States IATA: SWF
City: New York Charts: Log in to view charts City: Newburgh
Name: John F Kennedy Intl Hub: Yes Name Stewart Intl
General Info
ICAO: KJFK
IATA: JFK
City: New York
Name: John F Kennedy Intl
Elevation: 13 ft
Country: United States
Charts: Log in to view charts
Hub: Yes
 
Alternate Airport
ICAO: KSWF
IATA: SWF
City: Newburgh
Name: Stewart Intl

Weather
231451Z 14010KT 10SM FEW012 FEW050 BKN250 22/18 A3028
Weather
231451Z 14010KT 10SM FEW012 FEW050 BKN250 22/18 A3028

Runway Info
04L
Length ILS/LOC Course
3460 m 110.90 045
04R
Length ILS/LOC Course
2560 m 109.50 045
13L
Length ILS/LOC Course
3048 m 111.50 135
13R
Length ILS/LOC Heading
4423 m N/A 121
22L
Length ILS/LOC Course
2560 m 110.90 225
22R
Length ILS/LOC Course
3460 m 109.50 222
31L
Length ILS/LOC Course
4423 m 111.35 315
31R
Length ILS/LOC Course
3048 m 111.50 315

NOTAMs
NOTAMs currently unavailable.
NOTAMs
NOTAMs currently unavailable

Route map
Airport
Airport (hub)